sensor_id;sensor_type;location;lat;lon;timestamp;pressure;altitude;pressure_sealevel;temperature;humidity
16793;BME280;8513;42.662;23.350;2023-02-28T00:00:49;95369.59;;;8.84;70.36
16793;BME280;8513;42.662;23.350;2023-02-28T00:03:14;95373.31;;;8.82;70.12
16793;BME280;8513;42.662;23.350;2023-02-28T00:05:40;95378.56;;;8.82;70.15
16793;BME280;8513;42.662;23.350;2023-02-28T00:08:07;95376.03;;;8.71;69.93
16793;BME280;8513;42.662;23.350;2023-02-28T00:10:33;95367.50;;;8.69;70.39
16793;BME280;8513;42.662;23.350;2023-02-28T00:13:03;95365.00;;;8.67;70.46
16793;BME280;8513;42.662;23.350;2023-02-28T00:15:30;95382.63;;;8.65;70.57
16793;BME280;8513;42.662;23.350;2023-02-28T00:17:56;95384.72;;;8.61;71.15
16793;BME280;8513;42.662;23.350;2023-02-28T00:20:21;95372.88;;;8.67;70.82
16793;BME280;8513;42.662;23.350;2023-02-28T00:22:51;95378.81;;;8.69;70.63
16793;BME280;8513;42.662;23.350;2023-02-28T00:25:19;95390.94;;;8.70;70.83
16793;BME280;8513;42.662;23.350;2023-02-28T00:27:46;95376.78;;;8.52;70.91
16793;BME280;8513;42.662;23.350;2023-02-28T00:30:13;95393.94;;;8.66;70.81
16793;BME280;8513;42.662;23.350;2023-02-28T00:32:39;95395.22;;;8.71;70.05
16793;BME280;8513;42.662;23.350;2023-02-28T00:35:06;95371.34;;;8.65;70.48
16793;BME280;8513;42.662;23.350;2023-02-28T00:37:32;95391.50;;;8.74;70.32
16793;BME280;8513;42.662;23.350;2023-02-28T00:39:57;95390.28;;;8.78;70.16
16793;BME280;8513;42.662;23.350;2023-02-28T00:42:29;95382.16;;;8.81;70.54
16793;BME280;8513;42.662;23.350;2023-02-28T00:44:55;95373.47;;;8.80;70.75
16793;BME280;8513;42.662;23.350;2023-02-28T00:47:20;95365.44;;;8.82;70.67
16793;BME280;8513;42.662;23.350;2023-02-28T00:49:46;95370.53;;;8.74;69.86
16793;BME280;8513;42.662;23.350;2023-02-28T00:52:11;95376.47;;;8.76;70.29
16793;BME280;8513;42.662;23.350;2023-02-28T00:54:37;95374.53;;;8.47;70.98
16793;BME280;8513;42.662;23.350;2023-02-28T00:57:02;95364.94;;;8.36;70.95
16793;BME280;8513;42.662;23.350;2023-02-28T00:59:28;95374.16;;;8.31;71.68
16793;BME280;8513;42.662;23.350;2023-02-28T01:01:53;95384.00;;;7.97;72.57
16793;BME280;8513;42.662;23.350;2023-02-28T01:04:19;95381.00;;;8.01;73.13
16793;BME280;8513;42.662;23.350;2023-02-28T01:06:44;95392.56;;;8.20;72.04
16793;BME280;8513;42.662;23.350;2023-02-28T01:09:10;95382.00;;;8.10;72.44
16793;BME280;8513;42.662;23.350;2023-02-28T01:11:36;95374.94;;;8.22;72.01
16793;BME280;8513;42.662;23.350;2023-02-28T01:14:02;95378.56;;;8.30;72.03
16793;BME280;8513;42.662;23.350;2023-02-28T01:16:27;95373.44;;;8.40;71.36
16793;BME280;8513;42.662;23.350;2023-02-28T01:18:53;95375.22;;;8.39;71.74
16793;BME280;8513;42.662;23.350;2023-02-28T01:21:20;95373.03;;;8.45;71.17
16793;BME280;8513;42.662;23.350;2023-02-28T01:23:46;95369.91;;;8.51;71.12
16793;BME280;8513;42.662;23.350;2023-02-28T01:26:18;95371.28;;;8.55;71.46
16793;BME280;8513;42.662;23.350;2023-02-28T01:28:43;95364.38;;;8.54;71.20
16793;BME280;8513;42.662;23.350;2023-02-28T01:31:10;95367.72;;;8.56;71.26
16793;BME280;8513;42.662;23.350;2023-02-28T01:33:36;95365.63;;;8.29;71.54
16793;BME280;8513;42.662;23.350;2023-02-28T01:36:04;95360.16;;;8.42;71.09
16793;BME280;8513;42.662;23.350;2023-02-28T01:38:31;95366.03;;;8.55;70.51
16793;BME280;8513;42.662;23.350;2023-02-28T01:40:56;95371.50;;;8.42;70.63
16793;BME280;8513;42.662;23.350;2023-02-28T01:43:28;95366.50;;;8.39;70.70
16793;BME280;8513;42.662;23.350;2023-02-28T01:45:55;95370.66;;;8.42;70.51
16793;BME280;8513;42.662;23.350;2023-02-28T01:48:26;95372.06;;;8.46;70.42
16793;BME280;8513;42.662;23.350;2023-02-28T01:50:55;95379.13;;;8.55;70.13
16793;BME280;8513;42.662;23.350;2023-02-28T01:53:28;95377.09;;;8.37;69.90
16793;BME280;8513;42.662;23.350;2023-02-28T01:55:55;95379.13;;;8.34;69.76
16793;BME280;8513;42.662;23.350;2023-02-28T01:58:22;95383.28;;;8.36;69.69
16793;BME280;8513;42.662;23.350;2023-02-28T02:00:48;95382.34;;;8.37;69.86
16793;BME280;8513;42.662;23.350;2023-02-28T02:03:16;95381.63;;;8.35;69.63
16793;BME280;8513;42.662;23.350;2023-02-28T02:05:44;95380.44;;;7.98;70.82
16793;BME280;8513;42.662;23.350;2023-02-28T02:08:17;95374.34;;;7.76;71.90
16793;BME280;8513;42.662;23.350;2023-02-28T02:10:48;95375.28;;;7.75;72.28
16793;BME280;8513;42.662;23.350;2023-02-28T02:27:08;95368.66;;;7.71;72.33
16793;BME280;8513;42.662;23.350;2023-02-28T02:34:56;95367.25;;;7.88;71.80
16793;BME280;8513;42.662;23.350;2023-02-28T02:42:41;95377.50;;;7.59;73.12
16793;BME280;8513;42.662;23.350;2023-02-28T02:45:19;95379.66;;;7.86;72.58
16793;BME280;8513;42.662;23.350;2023-02-28T02:47:48;95381.56;;;7.84;72.38
16793;BME280;8513;42.662;23.350;2023-02-28T02:50:21;95372.19;;;7.81;72.01
16793;BME280;8513;42.662;23.350;2023-02-28T02:52:52;95380.16;;;7.80;72.29
16793;BME280;8513;42.662;23.350;2023-02-28T02:55:20;95383.69;;;7.90;71.77
16793;BME280;8513;42.662;23.350;2023-02-28T02:57:59;95384.09;;;7.74;72.24
16793;BME280;8513;42.662;23.350;2023-02-28T03:00:32;95388.88;;;7.69;72.26
16793;BME280;8513;42.662;23.350;2023-02-28T03:02:59;95395.56;;;7.94;71.81
16793;BME280;8513;42.662;23.350;2023-02-28T03:05:50;95400.09;;;7.92;72.11
16793;BME280;8513;42.662;23.350;2023-02-28T03:08:15;95412.06;;;8.06;71.68
16793;BME280;8513;42.662;23.350;2023-02-28T03:10:45;95420.22;;;8.12;72.08
16793;BME280;8513;42.662;23.350;2023-02-28T03:18:49;95416.78;;;8.12;71.19
16793;BME280;8513;42.662;23.350;2023-02-28T03:24:10;95421.75;;;8.15;71.30
16793;BME280;8513;42.662;23.350;2023-02-28T03:26:42;95423.69;;;8.13;71.53
16793;BME280;8513;42.662;23.350;2023-02-28T03:29:36;95428.41;;;8.19;71.33
16793;BME280;8513;42.662;23.350;2023-02-28T03:32:08;95429.50;;;8.16;70.91
16793;BME280;8513;42.662;23.350;2023-02-28T03:34:43;95434.63;;;8.18;71.34
16793;BME280;8513;42.662;23.350;2023-02-28T03:37:16;95434.53;;;8.08;71.23
16793;BME280;8513;42.662;23.350;2023-02-28T03:39:48;95431.09;;;8.08;71.29
16793;BME280;8513;42.662;23.350;2023-02-28T03:42:20;95423.91;;;8.10;71.46
16793;BME280;8513;42.662;23.350;2023-02-28T03:44:59;95439.00;;;8.17;71.13
16793;BME280;8513;42.662;23.350;2023-02-28T03:47:32;95438.75;;;8.00;71.85
16793;BME280;8513;42.662;23.350;2023-02-28T03:52:35;95440.16;;;8.04;72.14
16793;BME280;8513;42.662;23.350;2023-02-28T03:55:08;95441.38;;;7.88;72.01
16793;BME280;8513;42.662;23.350;2023-02-28T04:00:12;95442.81;;;7.92;72.01
16793;BME280;8513;42.662;23.350;2023-02-28T04:02:40;95449.84;;;7.92;72.07
16793;BME280;8513;42.662;23.350;2023-02-28T04:05:06;95448.16;;;8.02;72.10
16793;BME280;8513;42.662;23.350;2023-02-28T04:07:32;95450.38;;;8.07;71.43
16793;BME280;8513;42.662;23.350;2023-02-28T04:09:58;95446.09;;;8.06;71.33
16793;BME280;8513;42.662;23.350;2023-02-28T04:12:24;95438.44;;;7.82;72.44
16793;BME280;8513;42.662;23.350;2023-02-28T04:14:50;95444.25;;;7.97;72.00
16793;BME280;8513;42.662;23.350;2023-02-28T04:17:16;95437.06;;;7.99;71.97
16793;BME280;8513;42.662;23.350;2023-02-28T04:19:41;95437.22;;;7.97;71.38
16793;BME280;8513;42.662;23.350;2023-02-28T04:22:08;95431.25;;;7.95;71.50
16793;BME280;8513;42.662;23.350;2023-02-28T04:24:34;95434.09;;;8.03;71.24
16793;BME280;8513;42.662;23.350;2023-02-28T04:26:59;95443.13;;;7.99;71.39
16793;BME280;8513;42.662;23.350;2023-02-28T04:29:34;95442.75;;;8.04;71.42
16793;BME280;8513;42.662;23.350;2023-02-28T04:32:01;95446.28;;;8.14;70.97
16793;BME280;8513;42.662;23.350;2023-02-28T04:34:27;95443.22;;;8.09;70.65
16793;BME280;8513;42.662;23.350;2023-02-28T04:36:54;95439.84;;;7.97;70.96
16793;BME280;8513;42.662;23.350;2023-02-28T04:39:21;95438.25;;;7.73;71.74
16793;BME280;8513;42.662;23.350;2023-02-28T04:41:47;95453.41;;;7.91;71.66
16793;BME280;8513;42.662;23.350;2023-02-28T04:44:13;95445.53;;;7.91;71.71
16793;BME280;8513;42.662;23.350;2023-02-28T04:46:39;95458.09;;;7.76;71.57
16793;BME280;8513;42.662;23.350;2023-02-28T04:49:05;95454.28;;;7.80;71.89
16793;BME280;8513;42.662;23.350;2023-02-28T04:51:30;95454.63;;;7.87;71.48
16793;BME280;8513;42.662;23.350;2023-02-28T04:53:55;95465.34;;;7.84;71.61
16793;BME280;8513;42.662;23.350;2023-02-28T04:56:21;95461.41;;;7.89;71.42
16793;BME280;8513;42.662;23.350;2023-02-28T04:58:48;95464.03;;;7.89;71.36
16793;BME280;8513;42.662;23.350;2023-02-28T05:01:28;95466.50;;;7.91;71.49
16793;BME280;8513;42.662;23.350;2023-02-28T05:03:56;95475.00;;;8.04;71.17
16793;BME280;8513;42.662;23.350;2023-02-28T05:06:23;95463.50;;;7.95;72.00
16793;BME280;8513;42.662;23.350;2023-02-28T05:08:50;95466.84;;;7.98;71.26
16793;BME280;8513;42.662;23.350;2023-02-28T05:11:18;95467.91;;;7.95;71.42
16793;BME280;8513;42.662;23.350;2023-02-28T05:13:44;95469.13;;;7.91;71.33
16793;BME280;8513;42.662;23.350;2023-02-28T05:16:10;95463.19;;;7.89;71.35
16793;BME280;8513;42.662;23.350;2023-02-28T05:18:36;95470.91;;;7.90;71.17
16793;BME280;8513;42.662;23.350;2023-02-28T05:21:01;95474.69;;;7.98;70.85
16793;BME280;8513;42.662;23.350;2023-02-28T05:23:27;95483.00;;;7.70;71.88
16793;BME280;8513;42.662;23.350;2023-02-28T05:25:53;95475.09;;;7.82;71.53
16793;BME280;8513;42.662;23.350;2023-02-28T05:28:19;95485.47;;;7.83;71.71
16793;BME280;8513;42.662;23.350;2023-02-28T05:30:45;95495.25;;;7.70;71.90
16793;BME280;8513;42.662;23.350;2023-02-28T05:33:11;95492.50;;;7.71;72.34
16793;BME280;8513;42.662;23.350;2023-02-28T05:35:41;95494.63;;;7.78;72.03
16793;BME280;8513;42.662;23.350;2023-02-28T05:38:08;95493.06;;;7.86;71.73
16793;BME280;8513;42.662;23.350;2023-02-28T05:40:33;95497.09;;;7.90;71.08
16793;BME280;8513;42.662;23.350;2023-02-28T05:42:59;95491.84;;;7.90;70.85
16793;BME280;8513;42.662;23.350;2023-02-28T05:45:24;95498.25;;;7.98;70.96
16793;BME280;8513;42.662;23.350;2023-02-28T05:47:53;95508.09;;;7.73;72.02
16793;BME280;8513;42.662;23.350;2023-02-28T05:50:19;95510.78;;;7.94;71.25
16793;BME280;8513;42.662;23.350;2023-02-28T05:52:49;95508.03;;;7.95;70.91
16793;BME280;8513;42.662;23.350;2023-02-28T05:55:14;95514.47;;;7.91;71.18
16793;BME280;8513;42.662;23.350;2023-02-28T05:57:40;95519.06;;;7.99;70.58
16793;BME280;8513;42.662;23.350;2023-02-28T06:00:06;95515.91;;;7.84;71.48
16793;BME280;8513;42.662;23.350;2023-02-28T06:02:31;95517.47;;;7.87;71.17
16793;BME280;8513;42.662;23.350;2023-02-28T06:04:57;95513.06;;;7.87;71.60
16793;BME280;8513;42.662;23.350;2023-02-28T06:07:22;95510.28;;;8.00;71.16
16793;BME280;8513;42.662;23.350;2023-02-28T06:09:48;95499.91;;;7.99;70.97
16793;BME280;8513;42.662;23.350;2023-02-28T06:12:13;95514.19;;;8.06;70.89
16793;BME280;8513;42.662;23.350;2023-02-28T06:14:38;95506.84;;;8.00;70.79
16793;BME280;8513;42.662;23.350;2023-02-28T06:17:04;95505.19;;;7.87;71.62
16793;BME280;8513;42.662;23.350;2023-02-28T06:19:54;95506.47;;;7.49;73.32
16793;BME280;8513;42.662;23.350;2023-02-28T06:22:45;95514.94;;;7.31;75.44
16793;BME280;8513;42.662;23.350;2023-02-28T06:25:35;95515.97;;;7.62;74.29
16793;BME280;8513;42.662;23.350;2023-02-28T06:28:04;95507.97;;;7.74;73.32
16793;BME280;8513;42.662;23.350;2023-02-28T06:30:29;95506.41;;;7.83;73.11
16793;BME280;8513;42.662;23.350;2023-02-28T06:32:56;95514.31;;;8.04;72.05
16793;BME280;8513;42.662;23.350;2023-02-28T06:35:21;95514.97;;;8.17;71.64
16793;BME280;8513;42.662;23.350;2023-02-28T06:37:47;95513.00;;;8.31;71.14
16793;BME280;8513;42.662;23.350;2023-02-28T06:40:13;95513.34;;;8.37;70.86
16793;BME280;8513;42.662;23.350;2023-02-28T06:42:38;95516.47;;;8.43;70.77
16793;BME280;8513;42.662;23.350;2023-02-28T06:45:04;95519.09;;;8.43;70.23
16793;BME280;8513;42.662;23.350;2023-02-28T06:47:35;95521.28;;;8.26;69.67
16793;BME280;8513;42.662;23.350;2023-02-28T06:50:00;95534.44;;;8.04;70.79
16793;BME280;8513;42.662;23.350;2023-02-28T06:52:26;95538.72;;;8.05;71.13
16793;BME280;8513;42.662;23.350;2023-02-28T06:54:52;95529.91;;;8.06;71.09
16793;BME280;8513;42.662;23.350;2023-02-28T06:57:35;95530.41;;;7.88;71.51
16793;BME280;8513;42.662;23.350;2023-02-28T07:00:03;95535.19;;;7.94;71.62
16793;BME280;8513;42.662;23.350;2023-02-28T07:02:30;95533.16;;;7.87;71.62
16793;BME280;8513;42.662;23.350;2023-02-28T07:04:56;95532.13;;;7.78;72.36
16793;BME280;8513;42.662;23.350;2023-02-28T07:07:22;95534.56;;;8.02;71.54
16793;BME280;8513;42.662;23.350;2023-02-28T07:09:47;95528.47;;;8.02;72.02
16793;BME280;8513;42.662;23.350;2023-02-28T07:12:13;95528.88;;;8.29;71.04
16793;BME280;8513;42.662;23.350;2023-02-28T07:14:38;95516.16;;;8.25;70.62
16793;BME280;8513;42.662;23.350;2023-02-28T07:17:06;95525.03;;;8.33;70.07
16793;BME280;8513;42.662;23.350;2023-02-28T07:19:32;95516.41;;;8.22;70.57
16793;BME280;8513;42.662;23.350;2023-02-28T07:21:57;95521.34;;;8.36;70.19
16793;BME280;8513;42.662;23.350;2023-02-28T07:24:23;95528.13;;;8.06;70.90
16793;BME280;8513;42.662;23.350;2023-02-28T07:26:51;95531.66;;;8.16;70.73
16793;BME280;8513;42.662;23.350;2023-02-28T07:29:16;95536.94;;;8.05;70.90
16793;BME280;8513;42.662;23.350;2023-02-28T07:31:42;95525.28;;;7.98;71.49
16793;BME280;8513;42.662;23.350;2023-02-28T07:34:07;95523.19;;;8.24;70.51
16793;BME280;8513;42.662;23.350;2023-02-28T07:36:32;95522.78;;;8.40;70.18
16793;BME280;8513;42.662;23.350;2023-02-28T07:38:58;95529.06;;;8.49;69.99
16793;BME280;8513;42.662;23.350;2023-02-28T07:41:24;95532.91;;;8.33;70.52
16793;BME280;8513;42.662;23.350;2023-02-28T07:43:53;95531.81;;;8.36;70.61
16793;BME280;8513;42.662;23.350;2023-02-28T07:46:20;95532.53;;;8.70;69.73
16793;BME280;8513;42.662;23.350;2023-02-28T07:48:46;95533.69;;;8.77;69.08
16793;BME280;8513;42.662;23.350;2023-02-28T07:51:11;95524.47;;;8.83;68.61
16793;BME280;8513;42.662;23.350;2023-02-28T07:53:37;95522.28;;;8.88;68.56
16793;BME280;8513;42.662;23.350;2023-02-28T07:56:03;95522.16;;;8.90;68.76
16793;BME280;8513;42.662;23.350;2023-02-28T07:58:30;95527.09;;;9.04;68.33
16793;BME280;8513;42.662;23.350;2023-02-28T08:00:55;95527.34;;;9.01;68.58
16793;BME280;8513;42.662;23.350;2023-02-28T08:03:22;95523.41;;;9.16;68.60
16793;BME280;8513;42.662;23.350;2023-02-28T08:05:48;95520.59;;;9.08;68.64
16793;BME280;8513;42.662;23.350;2023-02-28T08:08:15;95527.25;;;9.12;69.35
16793;BME280;8513;42.662;23.350;2023-02-28T08:10:40;95523.47;;;9.05;68.96
16793;BME280;8513;42.662;23.350;2023-02-28T08:13:06;95517.53;;;9.03;69.17
16793;BME280;8513;42.662;23.350;2023-02-28T08:15:32;95522.63;;;9.25;68.57
16793;BME280;8513;42.662;23.350;2023-02-28T08:17:57;95517.56;;;9.43;68.35
16793;BME280;8513;42.662;23.350;2023-02-28T08:20:24;95521.06;;;9.44;67.82
16793;BME280;8513;42.662;23.350;2023-02-28T08:22:49;95519.78;;;9.08;69.93
16793;BME280;8513;42.662;23.350;2023-02-28T08:25:15;95519.78;;;8.87;71.75
16793;BME280;8513;42.662;23.350;2023-02-28T08:27:41;95520.78;;;8.95;71.36
16793;BME280;8513;42.662;23.350;2023-02-28T08:30:07;95525.56;;;9.11;70.98
16793;BME280;8513;42.662;23.350;2023-02-28T08:32:34;95519.50;;;9.11;71.13
16793;BME280;8513;42.662;23.350;2023-02-28T08:35:00;95526.47;;;9.21;71.05
16793;BME280;8513;42.662;23.350;2023-02-28T08:37:26;95526.72;;;9.18;71.58
16793;BME280;8513;42.662;23.350;2023-02-28T08:39:52;95522.81;;;9.43;70.78
16793;BME280;8513;42.662;23.350;2023-02-28T08:42:17;95533.53;;;9.61;70.39
16793;BME280;8513;42.662;23.350;2023-02-28T08:44:43;95520.59;;;9.79;69.76
16793;BME280;8513;42.662;23.350;2023-02-28T08:47:08;95530.00;;;9.82;69.62
16793;BME280;8513;42.662;23.350;2023-02-28T08:49:34;95524.94;;;9.49;70.82
16793;BME280;8513;42.662;23.350;2023-02-28T08:51:59;95521.22;;;9.52;70.78
16793;BME280;8513;42.662;23.350;2023-02-28T08:54:25;95526.91;;;9.57;70.89
16793;BME280;8513;42.662;23.350;2023-02-28T08:56:51;95525.81;;;9.69;70.93
16793;BME280;8513;42.662;23.350;2023-02-28T08:59:17;95528.69;;;9.57;71.61
16793;BME280;8513;42.662;23.350;2023-02-28T09:01:42;95529.84;;;9.74;71.79
16793;BME280;8513;42.662;23.350;2023-02-28T09:04:09;95521.00;;;9.75;71.24
16793;BME280;8513;42.662;23.350;2023-02-28T09:06:36;95531.66;;;9.83;71.22
16793;BME280;8513;42.662;23.350;2023-02-28T09:09:01;95533.22;;;9.45;71.73
16793;BME280;8513;42.662;23.350;2023-02-28T09:11:28;95521.66;;;9.57;70.99
16793;BME280;8513;42.662;23.350;2023-02-28T09:13:54;95521.28;;;9.71;70.14
16793;BME280;8513;42.662;23.350;2023-02-28T09:16:21;95528.09;;;9.84;69.53
16793;BME280;8513;42.662;23.350;2023-02-28T09:18:47;95523.75;;;9.63;70.06
16793;BME280;8513;42.662;23.350;2023-02-28T09:21:15;95531.44;;;9.55;71.08
16793;BME280;8513;42.662;23.350;2023-02-28T09:23:42;95538.81;;;9.71;70.65
16793;BME280;8513;42.662;23.350;2023-02-28T09:26:13;95525.88;;;9.99;69.70
16793;BME280;8513;42.662;23.350;2023-02-28T09:28:39;95527.16;;;10.04;69.34
16793;BME280;8513;42.662;23.350;2023-02-28T09:31:04;95521.63;;;10.07;69.52
16793;BME280;8513;42.662;23.350;2023-02-28T09:33:30;95519.19;;;10.35;69.17
16793;BME280;8513;42.662;23.350;2023-02-28T09:36:00;95522.06;;;10.22;69.64
16793;BME280;8513;42.662;23.350;2023-02-28T09:38:26;95511.59;;;10.32;69.37
16793;BME280;8513;42.662;23.350;2023-02-28T09:40:56;95517.78;;;10.50;68.94
16793;BME280;8513;42.662;23.350;2023-02-28T09:43:25;95525.97;;;10.67;68.32
16793;BME280;8513;42.662;23.350;2023-02-28T09:46:00;95514.06;;;10.72;68.05
16793;BME280;8513;42.662;23.350;2023-02-28T09:48:36;95515.47;;;10.67;68.75
16793;BME280;8513;42.662;23.350;2023-02-28T09:53:49;95515.88;;;11.19;66.60
16793;BME280;8513;42.662;23.350;2023-02-28T09:56:24;95503.25;;;11.22;65.96
16793;BME280;8513;42.662;23.350;2023-02-28T09:59:02;95515.78;;;11.48;65.25
16793;BME280;8513;42.662;23.350;2023-02-28T10:01:56;95510.78;;;11.55;65.21
16793;BME280;8513;42.662;23.350;2023-02-28T10:07:02;95500.69;;;11.78;63.89
16793;BME280;8513;42.662;23.350;2023-02-28T10:09:32;95497.31;;;11.85;62.54
16793;BME280;8513;42.662;23.350;2023-02-28T10:12:04;95500.97;;;12.02;62.38
16793;BME280;8513;42.662;23.350;2023-02-28T10:14:33;95489.69;;;12.10;62.05
16793;BME280;8513;42.662;23.350;2023-02-28T10:17:15;95480.44;;;12.06;62.19
16793;BME280;8513;42.662;23.350;2023-02-28T10:22:34;95491.66;;;12.26;61.44
16793;BME280;8513;42.662;23.350;2023-02-28T10:25:15;95483.16;;;12.14;61.80
16793;BME280;8513;42.662;23.350;2023-02-28T10:27:41;95484.94;;;12.31;61.25
16793;BME280;8513;42.662;23.350;2023-02-28T10:30:11;95481.50;;;12.49;60.11
16793;BME280;8513;42.662;23.350;2023-02-28T10:32:38;95477.03;;;12.31;60.33
16793;BME280;8513;42.662;23.350;2023-02-28T10:35:17;95464.66;;;12.50;60.34
16793;BME280;8513;42.662;23.350;2023-02-28T10:37:46;95472.69;;;12.84;60.29
16793;BME280;8513;42.662;23.350;2023-02-28T10:45:34;95455.50;;;13.66;55.28
16793;BME280;8513;42.662;23.350;2023-02-28T11:01:46;95432.25;;;13.95;54.72
16793;BME280;8513;42.662;23.350;2023-02-28T11:04:34;95424.31;;;13.86;54.78
16793;BME280;8513;42.662;23.350;2023-02-28T11:07:09;95425.13;;;13.87;54.87
16793;BME280;8513;42.662;23.350;2023-02-28T11:09:41;95419.03;;;13.95;54.69
16793;BME280;8513;42.662;23.350;2023-02-28T11:12:23;95417.19;;;13.87;53.99
16793;BME280;8513;42.662;23.350;2023-02-28T11:14:53;95415.84;;;13.66;54.79
16793;BME280;8513;42.662;23.350;2023-02-28T11:17:22;95416.47;;;13.60;54.43
16793;BME280;8513;42.662;23.350;2023-02-28T11:19:51;95421.47;;;13.63;55.01
16793;BME280;8513;42.662;23.350;2023-02-28T11:22:21;95414.47;;;13.54;54.67
16793;BME280;8513;42.662;23.350;2023-02-28T11:24:55;95412.16;;;13.51;54.44
16793;BME280;8513;42.662;23.350;2023-02-28T11:33:37;95413.28;;;14.32;51.84
16793;BME280;8513;42.662;23.350;2023-02-28T11:36:28;95411.63;;;13.90;53.59
16793;BME280;8513;42.662;23.350;2023-02-28T11:39:07;95408.00;;;14.24;52.13
16793;BME280;8513;42.662;23.350;2023-02-28T11:50:12;95401.06;;;14.64;51.98
16793;BME280;8513;42.662;23.350;2023-02-28T11:52:53;95397.56;;;14.80;51.37
16793;BME280;8513;42.662;23.350;2023-02-28T11:55:24;95402.88;;;14.47;52.35
16793;BME280;8513;42.662;23.350;2023-02-28T12:10:04;95400.69;;;14.91;50.24
16793;BME280;8513;42.662;23.350;2023-02-28T12:15:48;95388.44;;;14.90;50.07
16793;BME280;8513;42.662;23.350;2023-02-28T12:26:41;95400.19;;;14.96;49.93
16793;BME280;8513;42.662;23.350;2023-02-28T12:29:21;95393.66;;;15.23;48.97
16793;BME280;8513;42.662;23.350;2023-02-28T12:31:56;95397.47;;;15.60;48.00
16793;BME280;8513;42.662;23.350;2023-02-28T12:37:33;95386.34;;;15.64;47.99
16793;BME280;8513;42.662;23.350;2023-02-28T12:40:11;95391.25;;;15.44;48.24
16793;BME280;8513;42.662;23.350;2023-02-28T12:42:45;95394.03;;;15.91;47.08
16793;BME280;8513;42.662;23.350;2023-02-28T12:45:20;95387.06;;;15.90;46.32
16793;BME280;8513;42.662;23.350;2023-02-28T12:48:00;95381.94;;;15.88;46.65
16793;BME280;8513;42.662;23.350;2023-02-28T12:50:27;95382.09;;;15.86;46.29
16793;BME280;8513;42.662;23.350;2023-02-28T12:53:23;95380.00;;;15.42;47.23
16793;BME280;8513;42.662;23.350;2023-02-28T13:03:49;95372.41;;;16.02;45.36
16793;BME280;8513;42.662;23.350;2023-02-28T13:06:45;95383.28;;;17.06;43.78
16793;BME280;8513;42.662;23.350;2023-02-28T13:09:20;95375.31;;;17.35;42.39
16793;BME280;8513;42.662;23.350;2023-02-28T13:11:50;95380.59;;;18.01;41.01
16793;BME280;8513;42.662;23.350;2023-02-28T13:19:28;95382.72;;;17.25;42.65
16793;BME280;8513;42.662;23.350;2023-02-28T13:21:55;95374.56;;;17.56;41.83
16793;BME280;8513;42.662;23.350;2023-02-28T13:29:34;95371.22;;;18.05;40.25
16793;BME280;8513;42.662;23.350;2023-02-28T13:34:39;95377.22;;;17.27;41.09
16793;BME280;8513;42.662;23.350;2023-02-28T13:47:42;95363.72;;;16.08;43.84
16793;BME280;8513;42.662;23.350;2023-02-28T13:59:20;95351.47;;;15.13;46.96
16793;BME280;8513;42.662;23.350;2023-02-28T14:02:09;95365.34;;;14.27;48.38
16793;BME280;8513;42.662;23.350;2023-02-28T14:05:06;95360.38;;;14.40;48.52
16793;BME280;8513;42.662;23.350;2023-02-28T14:07:33;95360.91;;;14.27;48.97
16793;BME280;8513;42.662;23.350;2023-02-28T14:10:06;95373.63;;;14.07;50.03
16793;BME280;8513;42.662;23.350;2023-02-28T14:18:01;95357.06;;;13.81;51.05
16793;BME280;8513;42.662;23.350;2023-02-28T14:20:32;95355.75;;;13.85;51.29
16793;BME280;8513;42.662;23.350;2023-02-28T14:23:13;95363.31;;;13.55;51.62
16793;BME280;8513;42.662;23.350;2023-02-28T14:26:03;95362.31;;;13.56;52.12
16793;BME280;8513;42.662;23.350;2023-02-28T14:31:23;95365.97;;;13.72;51.78
16793;BME280;8513;42.662;23.350;2023-02-28T14:36:26;95377.19;;;13.74;51.67
16793;BME280;8513;42.662;23.350;2023-02-28T14:38:56;95368.63;;;13.80;51.14
16793;BME280;8513;42.662;23.350;2023-02-28T14:41:31;95370.56;;;13.61;52.02
16793;BME280;8513;42.662;23.350;2023-02-28T14:43:59;95367.13;;;13.61;52.28
16793;BME280;8513;42.662;23.350;2023-02-28T14:46:35;95362.63;;;13.53;52.25
16793;BME280;8513;42.662;23.350;2023-02-28T14:49:04;95369.72;;;13.10;53.54
16793;BME280;8513;42.662;23.350;2023-02-28T14:51:30;95373.34;;;13.09;54.08
16793;BME280;8513;42.662;23.350;2023-02-28T14:53:59;95377.97;;;13.07;53.46
16793;BME280;8513;42.662;23.350;2023-02-28T14:56:37;95371.34;;;13.03;54.06
16793;BME280;8513;42.662;23.350;2023-02-28T14:59:04;95378.97;;;12.80;54.76
16793;BME280;8513;42.662;23.350;2023-02-28T15:01:30;95385.13;;;12.63;55.17
16793;BME280;8513;42.662;23.350;2023-02-28T15:04:11;95372.50;;;12.74;55.13
16793;BME280;8513;42.662;23.350;2023-02-28T15:06:43;95371.03;;;12.80;55.02
16793;BME280;8513;42.662;23.350;2023-02-28T15:09:17;95363.97;;;12.80;55.10
16793;BME280;8513;42.662;23.350;2023-02-28T15:11:47;95368.56;;;12.78;54.98
16793;BME280;8513;42.662;23.350;2023-02-28T15:14:17;95369.81;;;12.66;55.22
16793;BME280;8513;42.662;23.350;2023-02-28T15:16:46;95364.91;;;12.71;55.18
16793;BME280;8513;42.662;23.350;2023-02-28T15:19:22;95360.34;;;12.82;55.12
16793;BME280;8513;42.662;23.350;2023-02-28T15:21:55;95364.78;;;12.81;54.73
16793;BME280;8513;42.662;23.350;2023-02-28T15:24:30;95373.63;;;12.72;54.94
16793;BME280;8513;42.662;23.350;2023-02-28T15:27:03;95377.53;;;12.60;54.83
16793;BME280;8513;42.662;23.350;2023-02-28T15:29:30;95373.66;;;12.46;55.17
16793;BME280;8513;42.662;23.350;2023-02-28T15:32:07;95378.38;;;12.42;55.46
16793;BME280;8513;42.662;23.350;2023-02-28T15:37:23;95379.06;;;12.44;56.13
16793;BME280;8513;42.662;23.350;2023-02-28T15:39:50;95380.28;;;12.32;56.21
16793;BME280;8513;42.662;23.350;2023-02-28T15:42:21;95383.00;;;12.40;56.01
16793;BME280;8513;42.662;23.350;2023-02-28T15:44:47;95374.50;;;12.28;56.39
16793;BME280;8513;42.662;23.350;2023-02-28T15:47:18;95379.00;;;12.36;55.73
16793;BME280;8513;42.662;23.350;2023-02-28T15:49:52;95386.09;;;12.35;56.51
16793;BME280;8513;42.662;23.350;2023-02-28T15:52:41;95384.41;;;11.90;57.49
16793;BME280;8513;42.662;23.350;2023-02-28T15:55:20;95386.22;;;11.62;58.48
16793;BME280;8513;42.662;23.350;2023-02-28T15:57:50;95388.19;;;11.42;59.42
16793;BME280;8513;42.662;23.350;2023-02-28T16:00:20;95379.59;;;11.40;59.34